createdAt,value
2018-06-05T00:03:08.355Z,18.30
2018-06-05T00:07:12.083Z,18.20
2018-06-05T00:11:15.777Z,18.30
2018-06-05T00:15:19.412Z,18.20
2018-06-05T00:19:23.079Z,18.20
2018-06-05T00:23:26.738Z,18.20
2018-06-05T00:27:30.492Z,18.20
2018-06-05T00:35:37.471Z,18.10
2018-06-05T00:39:41.155Z,18.10
2018-06-05T00:43:44.828Z,18.10
2018-06-05T00:47:48.526Z,18.00
2018-06-05T00:52:03.462Z,18.00
2018-06-05T00:56:07.408Z,17.90
2018-06-05T01:00:11.116Z,17.90
2018-06-05T01:04:14.792Z,17.80
2018-06-05T01:08:18.497Z,17.80
2018-06-05T01:12:22.218Z,17.80
2018-06-05T01:16:25.960Z,17.80
2018-06-05T01:20:29.651Z,17.70
2018-06-05T01:24:33.321Z,17.70
2018-06-05T01:28:37.016Z,17.70
2018-06-05T01:32:40.639Z,17.60
2018-06-05T01:36:44.307Z,17.60
2018-06-05T01:40:47.972Z,17.60
2018-06-05T01:44:51.640Z,17.50
2018-06-05T01:48:55.331Z,17.50
2018-06-05T01:52:58.948Z,17.50
2018-06-05T01:57:02.701Z,17.40
2018-06-05T02:01:06.372Z,17.40
2018-06-05T02:05:10.120Z,17.40
2018-06-05T02:09:13.767Z,17.40
2018-06-05T02:13:17.432Z,17.40
2018-06-05T02:17:21.136Z,17.40
2018-06-05T02:21:24.912Z,17.40
2018-06-05T02:25:28.584Z,17.30
2018-06-05T02:29:32.219Z,17.30
2018-06-05T02:33:35.897Z,17.30
2018-06-05T02:37:39.671Z,17.30
2018-06-05T02:41:43.356Z,17.20
2018-06-05T02:45:47.027Z,17.20
2018-06-05T02:49:50.636Z,17.20
2018-06-05T02:53:54.295Z,17.20
2018-06-05T02:57:57.945Z,17.20
2018-06-05T03:02:01.639Z,17.20
2018-06-05T03:06:05.363Z,17.10
2018-06-05T03:10:09.014Z,17.20
2018-06-05T03:14:12.678Z,17.10
2018-06-05T03:18:16.360Z,17.10
2018-06-05T03:22:20.035Z,17.10
2018-06-05T03:26:23.726Z,17.10
2018-06-05T03:30:27.378Z,17.10
2018-06-05T03:34:31.039Z,17.00
2018-06-05T03:38:34.722Z,17.10
2018-06-05T03:42:38.400Z,17.10
2018-06-05T03:46:42.100Z,17.00
2018-06-05T03:50:45.746Z,17.10
2018-06-05T03:54:49.433Z,17.10
2018-06-05T03:58:53.112Z,17.10
2018-06-05T04:02:56.783Z,17.10
2018-06-05T04:07:00.510Z,17.10
2018-06-05T04:11:04.148Z,17.10
2018-06-05T04:15:07.896Z,17.20
2018-06-05T04:19:11.576Z,17.10
2018-06-05T04:23:15.331Z,17.10
2018-06-05T04:27:19.073Z,17.10
2018-06-05T04:31:22.714Z,17.10
2018-06-05T04:39:29.771Z,17.10
2018-06-05T04:43:33.422Z,17.10
2018-06-05T04:47:37.150Z,17.20
2018-06-05T04:51:40.836Z,17.20
2018-06-05T04:55:44.506Z,17.20
2018-06-05T04:59:48.176Z,17.20
2018-06-05T05:03:51.850Z,17.20
2018-06-05T05:07:55.559Z,17.30
2018-06-05T05:11:59.213Z,17.30
2018-06-05T05:16:02.899Z,17.30
2018-06-05T05:20:06.664Z,17.30
2018-06-05T05:24:10.332Z,17.30
2018-06-05T05:28:14.024Z,17.30
2018-06-05T05:32:17.664Z,17.30
2018-06-05T05:36:21.329Z,17.40
2018-06-05T05:40:25.023Z,17.30
2018-06-05T05:44:28.703Z,17.40
2018-06-05T05:48:32.375Z,17.40
2018-06-05T05:52:36.029Z,17.40
2018-06-05T05:56:39.693Z,17.30
2018-06-05T06:00:43.383Z,17.30
2018-06-05T06:04:47.069Z,17.30
2018-06-05T06:08:50.785Z,17.40
2018-06-05T06:12:54.434Z,17.30
2018-06-05T06:16:58.107Z,17.40
2018-06-05T06:21:01.803Z,17.40
2018-06-05T06:25:05.718Z,17.40
2018-06-05T06:29:09.393Z,17.40
2018-06-05T06:33:13.038Z,17.40
2018-06-05T06:37:16.717Z,17.40
2018-06-05T06:41:20.429Z,17.40
2018-06-05T06:45:24.103Z,17.40
2018-06-05T06:49:27.775Z,17.40
2018-06-05T06:53:31.401Z,17.40
2018-06-05T06:57:35.102Z,17.40
2018-06-05T07:01:38.789Z,17.40
2018-06-05T07:05:42.517Z,17.50
2018-06-05T07:09:46.180Z,17.50
2018-06-05T07:13:49.844Z,17.50
2018-06-05T07:17:56.324Z,17.50
2018-06-05T07:22:00.018Z,17.50
2018-06-05T07:26:03.722Z,17.60
2018-06-05T07:30:07.509Z,17.60
2018-06-05T07:34:11.182Z,17.60
2018-06-05T07:38:14.860Z,17.60
2018-06-05T07:42:18.526Z,17.70
2018-06-05T07:46:22.217Z,17.70
2018-06-05T07:50:25.959Z,17.70
2018-06-05T07:54:30.337Z,17.70
2018-06-05T07:58:34.857Z,17.70
2018-06-05T08:02:38.552Z,17.70
2018-06-05T08:06:42.331Z,17.80
2018-06-05T08:10:46.056Z,17.80
2018-06-05T08:14:49.759Z,17.80
2018-06-05T08:18:53.435Z,17.90
2018-06-05T08:22:57.584Z,17.90
2018-06-05T08:27:01.268Z,17.90
2018-06-05T08:31:04.972Z,18.00
2018-06-05T08:35:08.691Z,18.00
2018-06-05T08:39:12.335Z,18.10
2018-06-05T08:43:15.991Z,18.20
2018-06-05T08:47:19.696Z,18.10
2018-06-05T08:51:23.361Z,18.20
2018-06-05T08:55:27.046Z,18.20
2018-06-05T08:59:30.659Z,18.20
2018-06-05T09:03:34.308Z,18.20
2018-06-05T09:07:38.028Z,18.10
2018-06-05T09:11:41.695Z,18.10
2018-06-05T09:15:45.352Z,18.10
2018-06-05T09:19:48.979Z,18.10
2018-06-05T09:23:52.658Z,18.10
2018-06-05T09:27:56.352Z,18.10
2018-06-05T09:32:00.013Z,18.10
2018-06-05T09:36:03.670Z,18.20
2018-06-05T09:40:07.308Z,18.30
2018-06-05T09:44:10.952Z,18.30
2018-06-05T09:48:14.610Z,18.30
2018-06-05T09:52:18.281Z,18.40
2018-06-05T09:56:22.004Z,18.50
2018-06-05T10:00:30.968Z,18.50
2018-06-05T10:04:34.634Z,18.50
2018-06-05T10:08:38.351Z,18.60
2018-06-05T10:12:42.004Z,18.70
2018-06-05T10:16:45.663Z,18.80
2018-06-05T10:20:49.305Z,18.80
2018-06-05T10:24:52.976Z,18.90
2018-06-05T10:28:56.611Z,19.00
2018-06-05T10:33:00.368Z,19.10
2018-06-05T10:37:04.021Z,19.20
2018-06-05T10:41:07.649Z,19.30
2018-06-05T10:45:11.433Z,19.40
2018-06-05T10:49:15.088Z,19.40
2018-06-05T10:53:18.731Z,19.50
2018-06-05T10:57:22.383Z,19.50
2018-06-05T11:01:25.995Z,19.50
2018-06-05T11:05:29.744Z,19.60
2018-06-05T11:09:33.411Z,19.50
2018-06-05T11:13:37.080Z,19.60
2018-06-05T11:17:40.729Z,19.60
2018-06-05T11:21:44.352Z,19.70
2018-06-05T11:25:48.025Z,19.70
2018-06-05T11:29:51.698Z,19.80
2018-06-05T11:33:55.385Z,19.80
2018-06-05T11:37:59.051Z,19.80
2018-06-05T11:42:02.693Z,19.90
2018-06-05T11:46:06.478Z,19.90
2018-06-05T11:50:10.142Z,20.00
2018-06-05T11:54:13.827Z,20.10
2018-06-05T11:58:17.455Z,20.20
2018-06-05T12:02:21.118Z,20.30
2018-06-05T12:06:24.796Z,20.40
2018-06-05T12:10:28.451Z,20.50
2018-06-05T12:14:32.101Z,20.60
2018-06-05T12:18:35.755Z,20.70
2018-06-05T12:22:39.390Z,20.70
2018-06-05T12:26:43.061Z,20.80
2018-06-05T12:30:46.729Z,20.90
2018-06-05T12:34:50.398Z,20.90
2018-06-05T12:38:54.046Z,21.10
2018-06-05T12:42:57.678Z,21.20
2018-06-05T12:47:01.336Z,21.40
2018-06-05T12:51:05.023Z,21.60
2018-06-05T12:55:08.765Z,21.80
2018-06-05T12:59:12.439Z,22.00
2018-06-05T13:03:16.088Z,22.20
2018-06-05T13:07:19.780Z,22.30
2018-06-05T13:11:23.478Z,22.50
2018-06-05T13:15:33.860Z,22.60
2018-06-05T13:19:37.508Z,22.80
2018-06-05T13:23:41.166Z,23.00
2018-06-05T13:27:44.818Z,23.10
2018-06-05T13:31:48.515Z,23.30
2018-06-05T13:35:52.208Z,23.40
2018-06-05T13:39:55.863Z,23.50
2018-06-05T13:43:59.545Z,23.70
2018-06-05T13:48:03.235Z,23.80
2018-06-05T13:52:06.940Z,24.00
2018-06-05T13:56:10.632Z,24.10
2018-06-05T14:00:14.324Z,24.30
2018-06-05T14:04:18.012Z,24.40
2018-06-05T14:08:21.720Z,24.50
2018-06-05T14:12:25.414Z,24.60
2018-06-05T14:16:29.088Z,24.70
2018-06-05T14:20:32.762Z,24.80
2018-06-05T14:24:36.441Z,24.90
2018-06-05T14:28:40.136Z,25.10
2018-06-05T14:32:43.782Z,25.20
2018-06-05T14:36:47.424Z,25.30
2018-06-05T14:40:51.071Z,25.30
2018-06-05T14:44:54.817Z,25.40
2018-06-05T14:48:58.533Z,25.30
2018-06-05T14:53:02.180Z,25.30
2018-06-05T14:57:06.025Z,25.50
2018-06-05T15:01:09.698Z,25.50
2018-06-05T15:05:13.380Z,25.60
2018-06-05T15:09:16.999Z,25.70
2018-06-05T15:13:20.715Z,25.70
2018-06-05T15:17:24.358Z,25.80
2018-06-05T15:21:28.013Z,25.90
2018-06-05T15:25:31.655Z,25.90
2018-06-05T15:29:35.264Z,26.00
2018-06-05T15:33:38.904Z,26.10
2018-06-05T15:37:42.552Z,26.10
2018-06-05T15:41:46.221Z,26.20
2018-06-05T15:45:49.891Z,26.30
2018-06-05T15:49:53.528Z,26.40
2018-06-05T15:53:57.172Z,26.50
2018-06-05T15:58:00.874Z,26.50
2018-06-05T16:02:04.562Z,26.50
2018-06-05T16:06:08.259Z,26.60
2018-06-05T16:10:11.981Z,26.60
2018-06-05T16:14:15.641Z,26.60
2018-06-05T16:18:19.295Z,26.70
2018-06-05T16:26:11.043Z,26.80
2018-06-05T16:30:14.653Z,26.80
2018-06-05T16:34:18.356Z,26.90
2018-06-05T16:38:22.032Z,26.90
2018-06-05T16:42:25.676Z,26.90
2018-06-05T16:46:29.310Z,26.80
2018-06-05T16:50:32.929Z,26.80
2018-06-05T16:54:36.580Z,26.80
2018-06-05T16:58:40.217Z,26.80
2018-06-05T17:02:43.973Z,26.80
2018-06-05T17:06:47.663Z,26.80
2018-06-05T17:10:51.259Z,26.80
2018-06-05T17:14:54.934Z,26.70
2018-06-05T17:18:58.569Z,26.70
2018-06-05T17:23:02.325Z,26.70
2018-06-05T17:27:06.021Z,26.70
2018-06-05T17:31:09.653Z,26.70
2018-06-05T17:35:13.345Z,26.60
2018-06-05T17:39:17.055Z,26.60
2018-06-05T17:43:20.708Z,26.60
2018-06-05T17:47:24.356Z,26.50
2018-06-05T17:51:28.000Z,26.50
2018-06-05T17:55:31.648Z,26.40
2018-06-05T17:59:35.300Z,26.30
2018-06-05T18:03:38.961Z,26.20
2018-06-05T18:07:42.704Z,26.20
2018-06-05T18:11:46.342Z,26.10
2018-06-05T18:15:50.011Z,26.00
2018-06-05T18:19:53.682Z,25.90
2018-06-05T18:23:57.331Z,25.80
2018-06-05T18:28:01.041Z,25.70
2018-06-05T18:32:04.718Z,25.60
2018-06-05T18:36:08.360Z,25.50
2018-06-05T18:40:12.011Z,25.40
2018-06-05T18:44:15.831Z,25.20
2018-06-05T18:48:19.472Z,25.10
2018-06-05T18:52:23.155Z,25.00
2018-06-05T18:56:26.789Z,24.90
2018-06-05T19:00:30.441Z,24.80
2018-06-05T19:04:34.132Z,24.60
2018-06-05T19:08:37.830Z,24.50
2018-06-05T19:12:41.500Z,24.30
2018-06-05T19:16:45.178Z,24.20
2018-06-05T19:20:48.845Z,24.00
2018-06-05T19:24:52.505Z,23.80
2018-06-05T19:28:56.171Z,23.70
2018-06-05T19:32:59.855Z,23.50
2018-06-05T19:37:03.483Z,23.30
2018-06-05T19:41:07.228Z,23.20
2018-06-05T19:45:11.224Z,23.10
2018-06-05T19:49:14.897Z,22.90
2018-06-05T19:53:18.547Z,22.80
2018-06-05T19:57:22.269Z,22.60
2018-06-05T20:01:25.918Z,22.50
2018-06-05T20:05:29.647Z,22.40
2018-06-05T20:09:33.284Z,22.20
2018-06-05T20:13:36.958Z,22.10
2018-06-05T20:17:40.692Z,22.00
2018-06-05T20:21:44.372Z,21.90
2018-06-05T20:25:48.043Z,21.70
2018-06-05T20:29:51.723Z,21.60
2018-06-05T20:33:55.388Z,21.50
2018-06-05T20:37:59.010Z,21.30
2018-06-05T20:42:02.678Z,21.10
2018-06-05T20:46:06.363Z,21.00
2018-06-05T20:50:10.037Z,20.90
2018-06-05T20:54:13.725Z,20.70
2018-06-05T20:58:17.344Z,20.60
2018-06-05T21:02:21.016Z,20.50
2018-06-05T21:06:24.734Z,20.40
2018-06-05T21:10:28.395Z,20.20
2018-06-05T21:14:32.085Z,20.10
2018-06-05T21:18:35.777Z,20.10
2018-06-05T21:22:39.422Z,19.90
2018-06-05T21:26:43.100Z,19.90
2018-06-05T21:30:46.753Z,19.80
2018-06-05T21:34:50.424Z,19.70
2018-06-05T21:38:54.149Z,19.70
2018-06-05T21:42:57.804Z,19.60
2018-06-05T21:47:01.461Z,19.60
2018-06-05T21:51:05.143Z,19.50
2018-06-05T21:55:08.876Z,19.40
2018-06-05T21:59:12.532Z,19.40
2018-06-05T22:03:16.159Z,19.30
2018-06-05T22:07:19.841Z,19.20
2018-06-05T22:11:23.538Z,19.10
2018-06-05T22:15:27.197Z,19.10
2018-06-05T22:19:30.860Z,19.00
2018-06-05T22:23:34.473Z,18.90
2018-06-05T22:27:38.218Z,18.90
2018-06-05T22:31:41.897Z,18.80
2018-06-05T22:35:45.545Z,18.70
2018-06-05T22:39:49.235Z,18.70
2018-06-05T22:43:52.864Z,18.60
2018-06-05T22:47:56.521Z,18.50
2018-06-05T22:52:00.263Z,18.40
2018-06-05T22:56:04.029Z,18.40
2018-06-05T23:00:07.757Z,18.30
2018-06-05T23:04:11.395Z,18.20
2018-06-05T23:08:15.089Z,18.20
2018-06-05T23:12:18.729Z,18.10
2018-06-05T23:16:22.400Z,18.00
2018-06-05T23:24:29.459Z,17.90
2018-06-05T23:28:33.128Z,17.80
2018-06-05T23:32:36.794Z,17.70
2018-06-05T23:36:40.457Z,17.70
2018-06-05T23:40:44.148Z,17.60
2018-06-05T23:44:47.828Z,17.60
2018-06-05T23:48:51.480Z,17.50
2018-06-05T23:52:55.136Z,17.50
2018-06-05T23:56:58.783Z,17.40
